Latest Weather Observations for Norah Head

IDN60801

Issued at 10:03 pm EST Sunday 28 August 2016 (issued every 30 minutes, with the page automatically refreshed every 10 minutes)

About weather observations | Map of weather stations | Latest weather observations for NSW | Other Formats
Station Details ID: 061366 Name: NORAH HEAD AWS Lat: -33.28 Lon: 151.58 Height: 18.8 m
Data from the previous 72 hours. | See also: Recent months at Norah Head
Date/Time
EST
Temp
°C
App
Temp
°C
Dew
Point
°C
Rel
Hum
%
Delta-T
°C
Wind Press
QNH
hPa
Press
MSL
hPa
Rain since
9am
mm
Dir  Spd
km/h
Gust
km/h
Spd
kts
Gust
kts
28/10:00pm 13.4 11.4 7.2 66 3.0 W 7 11 4 6 1023.5 1023.5 0.0
28/09:30pm 13.6 10.8 6.9 64 3.2 W 11 13 6 7 1023.5 1023.5 0.0
28/09:00pm 13.4 10.3 7.2 66 3.0 W 13 15 7 8 1023.5 1023.5 0.0
28/08:30pm 13.4 11.2 8.0 70 2.7 WSW 9 13 5 7 1023.5 1023.5 0.0
28/08:00pm 14.5 13.2 7.5 63 3.4 SSW 4 7 2 4 1023.2 1023.2 0.0
28/07:30pm 15.1 12.8 7.6 61 3.7 S 9 11 5 6 1022.9 1022.9 0.0
28/07:00pm 15.1 11.6 7.4 60 3.8 S 15 19 8 10 1022.6 1022.6 0.0
28/06:30pm 14.9 12.4 8.2 64 3.4 S 11 15 6 8 1022.4 1022.4 0.0
28/06:00pm 14.7 13.1 8.0 64 3.3 SSE 6 9 3 5 1022.0 1022.0 0.0
28/05:30pm 15.1 11.4 7.9 62 3.6 SSE 17 20 9 11 1021.7 1021.7 0.0
28/05:00pm 15.2 11.7 7.0 58 4.0 SSE 15 19 8 10 1021.3 1021.3 0.0
28/04:30pm 15.8 12.9 6.3 53 4.6 SE 11 13 6 7 1020.8 1020.8 0.0
28/04:00pm 16.6 14.0 5.9 49 5.2 E 9 11 5 6 1020.6 1020.6 0.0
28/03:30pm 16.7 14.0 5.6 48 5.4 E 9 13 5 7 1020.5 1020.5 0.0
28/03:00pm 17.3 14.7 5.9 47 5.5 ESE 9 9 5 5 1020.6 1020.6 0.0
28/02:30pm 17.8 15.2 6.0 46 5.8 ESE 9 11 5 6 1020.6 1020.6 0.0
28/02:00pm 18.5 15.4 5.7 43 6.2 SE 11 13 6 7 1020.6 1020.6 0.0
28/01:30pm 18.7 15.4 6.5 45 6.1 SSE 13 15 7 8 1020.9 1020.9 0.0
28/01:00pm 19.0 16.2 6.8 45 6.1 SSE 11 17 6 9 1021.1 1021.1 0.0
28/12:30pm 18.1 15.6 3.6 38 6.8 NW 6 11 3 6 1021.6 1021.6 0.0
28/12:00pm 18.0 15.6 4.2 40 6.5 W 6 9 3 5 1022.0 1022.0 0.0
28/11:30am 18.4 16.5 6.9 47 5.8 NNW 6 11 3 6 1022.2 1022.2 0.0
28/11:00am 16.9 14.7 6.1 49 5.2 NW 7 13 4 7 1022.6 1022.6 0.0
28/10:30am 15.2 12.6 4.0 47 5.2 WNW 7 13 4 7 1023.0 1023.0 0.0
28/10:00am 15.1 12.9 5.3 52 4.6 WNW 6 15 3 8 1023.1 1023.1 0.0
28/09:30am 14.0 11.6 5.4 56 4.0 WNW 7 15 4 8 1023.2 1023.2 0.0
28/09:00am 12.6 9.6 4.1 56 3.8 NW 9 15 5 8 1023.1 1023.1 0.0
28/08:30am 12.2 9.3 4.4 59 3.5 WNW 9 20 5 11 1023.2 1023.2 0.0
28/08:00am 11.1 8.6 3.6 60 3.3 W 6 13 3 7 1023.6 1023.6 0.0
28/07:30am 10.6 8.0 3.4 61 3.1 WNW 6 13 3 7 1023.1 1023.1 0.0
28/07:00am 9.4 6.8 3.4 66 2.6 WNW 6 9 3 5 1022.9 1022.9 0.0
28/06:30am 8.5 6.3 3.1 69 2.3 W 4 7 2 4 1022.4 1022.4 0.0
28/06:00am 8.3 5.6 3.6 72 2.0 WNW 7 13 4 7 1022.1 1022.1 0.0
28/05:30am 8.3 4.9 3.9 74 1.9 WNW 11 19 6 10 1021.9 1021.9 0.0
28/05:00am 8.4 5.7 3.5 71 2.1 WNW 7 13 4 7 1021.6 1021.6 0.0
28/04:30am 8.5 5.9 3.1 69 2.3 WNW 6 9 3 5 1021.4 1021.4 0.0
28/04:00am 8.6 5.9 3.6 71 2.1 WNW 7 9 4 5 1021.3 1021.3 0.0
28/03:30am 8.9 6.2 3.7 70 2.3 NW 7 11 4 6 1021.2 1021.2 0.0
28/03:00am 9.2 6.9 5.0 75 1.9 WNW 6 9 3 5 1021.3 1021.3 0.0
28/02:30am 9.3 6.9 4.3 71 2.2 NW 6 11 3 6 1021.4 1021.4 0.0
28/02:00am 9.8 7.3 4.8 71 2.2 WNW 7 11 4 6 1021.4 1021.4 0.0
28/01:30am 10.4 7.7 5.4 71 2.3 WNW 9 17 5 9 1021.6 1021.6 0.0
28/01:00am 10.9 7.5 6.1 72 2.2 W 13 19 7 10 1021.7 1021.7 0.0
28/12:30am 10.5 8.2 7.6 82 1.4 WNW 9 15 5 8 1021.7 1021.7 0.0
28/12:00am 10.8 8.6 7.7 81 1.5 WNW 9 13 5 7 1021.6 1021.6 0.0
 
Date/Time
EST
Temp
°C
App
Temp
°C
Dew
Point
°C
Rel
Hum
%
Delta-T
°C
Wind Press
QNH
hPa
Press
MSL
hPa
Rain since
9am
mm
Dir  Spd
km/h
Gust
km/h
Spd
kts
Gust
kts
27/11:30pm 11.3 9.2 8.2 81 1.5 WNW 9 15 5 8 1021.5 1021.5 0.0
27/11:00pm 11.5 9.2 9.1 85 1.2 WNW 11 15 6 8 1021.4 1021.4 0.0
27/10:30pm 11.9 10.6 9.8 87 1.1 NW 7 15 4 8 1021.5 1021.5 0.0
27/10:00pm 12.6 10.4 10.8 89 0.9 NNW 13 17 7 9 1021.5 1021.5 0.0
27/09:30pm 13.1 11.0 11.0 87 1.1 NNW 13 17 7 9 1021.4 1021.4 0.0
27/09:00pm 13.3 10.3 10.8 85 1.3 NNW 17 19 9 10 1021.5 1021.5 0.0
27/08:30pm 14.0 11.2 11.2 83 1.5 N 17 20 9 11 1021.3 1021.3 0.0
27/08:00pm 14.5 11.2 11.5 82 1.6 N 20 22 11 12 1021.1 1021.1 0.0
27/07:30pm 14.8 11.6 11.2 79 1.9 N 19 22 10 12 1021.2 1021.2 0.0
27/07:00pm 14.7 11.3 10.5 76 2.2 NNE 19 24 10 13 1021.2 1021.2 0.0
27/06:30pm 14.2 10.6 10.0 76 2.2 NE 19 22 10 12 1021.0 1021.0 0.0
27/06:00pm 14.2 10.7 10.2 77 2.1 NE 19 20 10 11 1020.8 1020.8 0.0
27/05:30pm 14.3 11.1 9.9 75 2.3 ENE 17 20 9 11 1020.5 1020.5 0.0
27/05:00pm 14.8 11.8 9.4 70 2.8 ENE 15 19 8 10 1020.6 1020.6 0.0
27/04:30pm 15.7 13.1 9.4 66 3.3 ENE 13 17 7 9 1020.6 1020.6 0.0
27/04:00pm 16.2 13.9 8.9 62 3.7 ENE 11 15 6 8 1020.4 1020.4 0.0
27/03:30pm 16.6 14.8 9.3 62 3.8 E 9 11 5 6 1020.5 1020.5 0.0
27/03:00pm 16.7 15.0 8.4 58 4.2 ESE 7 11 4 6 1020.5 1020.5 0.0
27/02:30pm 17.0 14.9 8.2 56 4.5 ESE 9 11 5 6 1020.7 1020.7 0.0
27/02:00pm 17.9 15.9 8.7 55 4.7 SE 9 11 5 6 1021.1 1021.1 0.0
27/01:30pm 17.9 15.6 9.0 56 4.6 SSE 11 13 6 7 1021.2 1021.2 0.0
27/01:00pm 16.2 13.9 7.4 56 4.4 S 9 13 5 7 1021.7 1021.7 0.0
27/12:30pm 16.9 14.8 8.1 56 4.5 SSW 9 13 5 7 1022.2 1022.2 0.0
27/12:00pm 16.7 14.7 8.7 59 4.1 SW 9 13 5 7 1022.5 1022.5 0.0
27/11:30am 15.9 13.6 7.4 57 4.2 SW 9 15 5 8 1022.7 1022.7 0.0
27/11:00am 16.1 14.0 8.1 59 4.0 SW 9 15 5 8 1022.8 1022.8 0.0
27/10:30am 15.3 13.0 7.6 60 3.8 WSW 9 17 5 9 1022.9 1022.9 0.0
27/10:00am 14.1 11.7 7.2 63 3.4 WSW 9 17 5 9 1023.0 1023.0 0.0
27/09:30am 12.6 10.6 6.4 66 2.9 W 6 11 3 6 1023.1 1023.1 0.0
27/09:00am 11.5 8.3 4.9 64 3.0 WSW 11 17 6 9 1023.0 1023.0 15.2
27/08:30am 11.5 8.8 5.8 68 2.7 WSW 9 19 5 10 1022.9 1022.9 15.2
27/08:00am 9.9 7.2 5.5 74 2.0 WSW 9 15 5 8 1022.7 1022.7 15.2
27/07:30am 9.6 6.9 5.6 76 1.8 WSW 9 15 5 8 1022.4 1022.4 15.2
27/07:00am 9.0 5.9 5.6 79 1.5 WSW 11 19 6 10 1022.0 1022.0 15.2
27/06:30am 9.0 5.6 6.1 82 1.3 W 13 19 7 10 1021.6 1021.6 15.2
27/06:00am 9.8 8.6 6.5 80 1.5 WNW 2 7 1 4 1021.9 1021.9 15.2
27/05:30am 9.9 7.6 5.9 76 1.8 WSW 7 11 4 6 1021.5 1021.5 15.2
27/05:00am 9.8 7.1 5.8 76 1.8 WSW 9 15 5 8 1021.1 1021.1 15.2
27/04:30am 9.9 7.0 6.4 79 1.6 WSW 11 15 6 8 1021.1 1021.1 15.2
27/04:00am 9.9 6.9 7.5 85 1.1 WSW 13 22 7 12 1021.0 1021.0 15.2
27/03:30am 9.8 7.0 8.4 91 0.7 W 13 19 7 10 1020.6 1020.6 15.2
27/03:00am 9.7 7.4 8.9 95 0.4 WNW 11 19 6 10 1020.7 1020.7 15.2
27/02:30am 9.7 6.9 8.5 92 0.6 W 13 19 7 10 1020.9 1020.9 15.2
27/02:00am 9.8 7.0 8.7 93 0.5 W 13 19 7 10 1020.8 1020.8 15.2
27/01:30am 10.5 7.8 9.1 91 0.7 W 13 19 7 10 1020.7 1020.7 15.2
27/01:00am 13.1 9.3 9.2 77 2.0 SSW 19 28 10 15 1020.9 1020.9 15.2
27/12:30am 13.3 8.1 8.8 74 2.3 SSW 26 33 14 18 1021.0 1021.0 15.2
27/12:00am 13.1 7.3 9.5 79 1.8 SSW 30 43 16 23 1021.0 1021.0 15.2
 
Date/Time
EST
Temp
°C
App
Temp
°C
Dew
Point
°C
Rel
Hum
%
Delta-T
°C
Wind Press
QNH
hPa
Press
MSL
hPa
Rain since
9am
mm
Dir  Spd
km/h
Gust
km/h
Spd
kts
Gust
kts
26/11:30pm 12.9 7.7 10.3 84 1.3 SSW 28 37 15 20 1020.9 1020.9 15.0
26/11:00pm 12.7 7.6 10.6 87 1.1 SSW 28 43 15 23 1020.8 1020.8 14.2
26/10:53pm 12.4 8.8 10.6 89 0.9 SSW 20 43 11 23 1020.8 1020.8 14.2
26/10:30pm 10.4 8.7 9.8 96 0.3 W 9 13 5 7 1020.8 1020.8 14.2
26/10:00pm 10.5 8.8 10.0 97 0.3 W 9 13 5 7 1020.9 1020.9 13.8
26/09:30pm 10.6 9.4 10.3 98 0.2 WNW 7 11 4 6 1021.1 1021.1 13.8
26/09:00pm 11.2 9.8 10.9 98 0.2 NNW 9 15 5 8 1020.8 1020.8 11.8
26/08:30pm 11.1 10.1 10.3 95 0.4 NW 6 19 3 10 1020.9 1020.9 11.2
26/08:00pm 11.1 8.7 10.2 94 0.5 NNW 13 20 7 11 1020.3 1020.3 9.6
26/07:30pm 11.4 10.3 10.8 96 0.3 NNE 7 11 4 6 1020.6 1020.6 9.6
26/07:00pm 11.6 10.5 10.5 93 0.6 WNW 7 13 4 7 1020.3 1020.3 9.0
26/06:30pm 12.8 9.5 9.4 80 1.7 SW 17 30 9 16 1019.5 1019.5 9.0
26/06:00pm 11.9 10.3 10.1 89 0.9 SSW 9 19 5 10 1019.0 1019.0 9.0
26/05:30pm 11.6 8.1 10.2 91 0.7 SE 19 22 10 12 1018.9 1018.9 8.6
26/05:00pm 12.0 6.4 10.2 89 0.9 SE 30 37 16 20 1018.4 1018.4 8.2
26/04:30pm 12.3 7.7 11.2 93 0.6 SSE 26 37 14 20 1018.0 1018.0 8.0
26/04:01pm 11.8 6.4 10.9 94 0.5 SSE 30 50 16 27 1018.1 1018.1 7.2
26/04:00pm 11.8 6.4 10.9 94 0.5 SE 30 50 16 27 1018.1 1018.1 7.2
26/03:30pm 13.3 9.0 10.8 85 1.3 SSE 24 39 13 21 1017.5 1017.5 4.6
26/03:26pm 13.6 11.0 10.6 82 1.6 SSW 15 39 8 21 1017.5 1017.5 4.6
26/03:00pm 11.8 10.1 9.7 87 1.1 NW 9 13 5 7 1017.3 1017.3 4.6
26/02:30pm 11.7 11.3 9.9 89 0.9 WNW 2 6 1 3 1017.6 1017.6 4.4
26/02:00pm 11.1 9.3 8.1 82 1.5 WSW 7 11 4 6 1017.7 1017.7 3.4
26/01:30pm 12.6 7.8 8.9 78 1.9 SSW 24 35 13 19 1017.8 1017.8 0.6
26/01:00pm 13.4 11.3 8.3 71 2.5 WSW 9 15 5 8 1017.7 1017.7 0.0
26/12:30pm 14.0 9.0 6.6 61 3.6 SSW 22 32 12 17 1018.0 1018.0 0.0
26/12:00pm 13.8 8.9 7.1 64 3.3 SSW 22 35 12 19 1018.3 1018.3 0.0
26/11:30am 13.6 9.2 6.7 63 3.3 SW 19 28 10 15 1018.6 1018.6 0.0
26/11:00am 13.7 9.6 6.1 60 3.6 SSW 17 28 9 15 1018.7 1018.7 0.0
26/10:30am 13.2 9.5 6.5 64 3.2 SW 15 30 8 16 1018.5 1018.5 0.0
26/10:00am 12.9 10.0 6.3 64 3.1 SW 11 19 6 10 1018.2 1018.2 0.0
26/09:30am 11.8 9.2 5.9 67 2.8 WSW 9 19 5 10 1018.3 1018.3 0.0
26/09:00am 11.0 7.3 4.7 65 2.8 WSW 13 24 7 13 1018.4 1018.4 2.2
26/08:30am 10.9 7.3 5.0 67 2.7 WSW 13 22 7 12 1018.4 1018.4 2.2
26/08:00am 9.8 5.8 4.8 71 2.2 WSW 15 24 8 13 1018.3 1018.3 2.2
26/07:30am 8.8 5.6 5.0 77 1.7 WSW 11 19 6 10 1018.1 1018.1 2.2
26/07:00am 8.2 5.3 4.6 78 1.6 W 9 17 5 9 1017.7 1017.7 2.2
26/06:30am 7.6 4.8 5.1 84 1.1 WNW 9 17 5 9 1017.0 1017.0 2.2
26/06:00am 7.6 4.7 4.7 82 1.3 W 9 17 5 9 1016.7 1016.7 2.2
26/05:30am 7.8 4.5 4.6 80 1.4 W 11 15 6 8 1016.4 1016.3 2.2
26/05:00am 8.1 5.2 4.5 78 1.6 W 9 13 5 7 1016.3 1016.2 2.2
26/04:30am 8.5 4.8 4.3 75 1.8 W 13 19 7 10 1016.0 1015.9 2.2
26/04:00am 8.8 5.9 4.4 74 1.9 W 9 17 5 9 1015.7 1015.6 2.2
26/03:30am 8.5 6.0 4.5 76 1.8 W 7 15 4 8 1015.6 1015.5 2.2
26/03:00am 8.9 6.0 4.7 75 1.9 W 9 17 5 9 1015.7 1015.6 2.2
26/02:30am 8.9 6.0 4.7 75 1.9 W 9 17 5 9 1015.5 1015.4 2.2
26/02:00am 9.2 5.5 4.2 71 2.2 WSW 13 22 7 12 1015.5 1015.4 2.2
26/01:30am 9.1 6.2 4.5 73 2.0 W 9 13 5 7 1015.6 1015.5 2.2
26/01:00am 9.1 6.2 4.9 75 1.9 W 9 13 5 7 1015.5 1015.4 2.2
26/12:30am 9.3 6.7 5.9 79 1.6 W 9 15 5 8 1015.3 1015.2 2.2
26/12:00am 9.3 7.2 6.6 83 1.3 W 7 11 4 6 1015.3 1015.2 2.2
 
Date/Time
EST
Temp
°C
App
Temp
°C
Dew
Point
°C
Rel
Hum
%
Delta-T
°C
Wind Press
QNH
hPa
Press
MSL
hPa
Rain since
9am
mm
Dir  Spd
km/h
Gust
km/h
Spd
kts
Gust
kts
25/11:30pm 9.2 7.2 7.2 87 0.9 WNW 7 13 4 7 1015.2 1015.1 2.2
25/11:00pm 9.4 7.6 7.8 90 0.8 WNW 7 11 4 6 1014.8 1014.7 2.2
25/10:30pm 9.7 7.9 8.1 90 0.8 WNW 7 11 4 6 1014.6 1014.5 2.2

Other Formats:

Comma delimited format used in spreadsheet applications
http://www.bom.gov.au/fwo/IDN60801/IDN60801.95770.axf

JavaScript Object Notation format (JSON) in row-major order
http://www.bom.gov.au/fwo/IDN60801/IDN60801.95770.json